createdAt,value
2023-02-11T00:00:43.791Z,60.20
2023-02-11T00:03:11.197Z,58.95
2023-02-11T00:05:38.576Z,77.57
2023-02-11T00:08:07.290Z,67.20
2023-02-11T00:10:34.720Z,66.82
2023-02-11T00:13:02.076Z,62.08
2023-02-11T00:15:29.416Z,60.80
2023-02-11T00:17:56.803Z,59.30
2023-02-11T00:20:24.183Z,62.17
2023-02-11T00:22:51.543Z,63.53
2023-02-11T00:25:20.250Z,61.95
2023-02-11T00:27:47.603Z,62.70
2023-02-11T00:30:15.381Z,66.68
2023-02-11T00:32:43.200Z,69.65
2023-02-11T00:35:10.565Z,58.35
2023-02-11T00:37:39.561Z,54.58
2023-02-11T00:40:07.284Z,66.13
2023-02-11T00:42:37.289Z,56.47
2023-02-11T00:45:04.892Z,63.40
2023-02-11T00:47:32.262Z,60.60
2023-02-11T00:50:00.863Z,59.78
2023-02-11T00:54:55.658Z,55.67
2023-02-11T00:57:23.189Z,53.58
2023-02-11T00:59:54.538Z,60.92
2023-02-11T01:02:25.150Z,54.03
2023-02-11T01:04:52.517Z,51.08
2023-02-11T01:07:22.329Z,55.35
2023-02-11T01:09:50.549Z,54.92
2023-02-11T01:12:20.072Z,52.47
2023-02-11T01:14:49.540Z,50.88
2023-02-11T01:17:20.546Z,55.95
2023-02-11T01:19:50.699Z,49.55
2023-02-11T01:22:20.024Z,53.05
2023-02-11T01:24:50.836Z,54.80
2023-02-11T01:27:21.038Z,50.00
2023-02-11T01:29:49.916Z,66.03
2023-02-11T01:32:17.335Z,53.40
2023-02-11T01:34:46.205Z,54.00
2023-02-11T01:37:13.908Z,51.35
2023-02-11T01:39:43.571Z,56.22
2023-02-11T01:42:16.248Z,49.17
2023-02-11T01:44:52.991Z,49.42
2023-02-11T01:47:20.913Z,51.17
2023-02-11T01:49:55.931Z,51.17
2023-02-11T01:52:26.436Z,56.83
2023-02-11T01:55:14.362Z,54.70
2023-02-11T01:57:47.905Z,44.17
2023-02-11T02:00:18.329Z,53.08
2023-02-11T02:02:54.187Z,49.40
2023-02-11T02:05:28.020Z,58.28
2023-02-11T02:08:01.580Z,48.42
2023-02-11T02:10:29.625Z,59.00
2023-02-11T02:15:26.782Z,46.45
2023-02-11T02:18:02.833Z,49.15
2023-02-11T02:20:49.298Z,53.53
2023-02-11T02:23:27.774Z,45.75
2023-02-11T02:26:08.411Z,48.08
2023-02-11T02:28:46.774Z,50.78
2023-02-11T02:31:25.983Z,47.47
2023-02-11T02:33:58.749Z,55.30
2023-02-11T02:36:34.877Z,48.70
2023-02-11T02:39:05.896Z,49.78
2023-02-11T02:41:34.119Z,46.75
2023-02-11T02:44:01.917Z,46.72
2023-02-11T02:46:32.751Z,51.55
2023-02-11T02:49:01.576Z,46.05
2023-02-11T02:51:46.386Z,51.45
2023-02-11T02:54:35.702Z,51.83
2023-02-11T02:57:08.476Z,50.55
2023-02-11T02:59:44.031Z,52.78
2023-02-11T03:02:15.104Z,46.63
2023-02-11T03:04:49.255Z,43.25
2023-02-11T03:07:21.475Z,51.20
2023-02-11T03:09:52.614Z,55.13
2023-02-11T03:12:20.863Z,53.22
2023-02-11T03:14:50.085Z,46.40
2023-02-11T03:17:18.748Z,48.30
2023-02-11T03:19:54.733Z,53.85
2023-02-11T03:22:24.503Z,57.90
2023-02-11T03:24:53.143Z,49.38
2023-02-11T03:27:25.079Z,42.78
2023-02-11T03:29:55.079Z,48.60
2023-02-11T03:32:28.249Z,51.42
2023-02-11T03:34:58.339Z,46.40
2023-02-11T03:37:31.345Z,49.85
2023-02-11T03:40:01.257Z,56.03
2023-02-11T03:42:34.168Z,51.45
2023-02-11T03:45:05.034Z,56.50
2023-02-11T03:47:42.891Z,62.63
2023-02-11T03:52:45.297Z,50.60
2023-02-11T03:55:14.207Z,52.53
2023-02-11T03:57:43.814Z,58.20
2023-02-11T04:00:13.851Z,52.83
2023-02-11T04:02:44.498Z,53.33
2023-02-11T04:05:17.645Z,51.42
2023-02-11T04:07:48.183Z,59.50
2023-02-11T04:10:18.503Z,58.13
2023-02-11T04:12:46.030Z,63.80
2023-02-11T04:15:13.413Z,59.88
2023-02-11T04:17:43.244Z,61.10
2023-02-11T04:20:13.733Z,65.13
2023-02-11T04:22:41.092Z,63.15
2023-02-11T04:25:10.472Z,62.85
2023-02-11T04:27:43.053Z,62.35
2023-02-11T04:30:18.259Z,65.18
2023-02-11T04:32:48.701Z,71.05
2023-02-11T04:35:16.053Z,67.93
2023-02-11T04:37:43.401Z,67.82
2023-02-11T04:40:12.611Z,65.28
2023-02-11T04:42:39.998Z,67.60
2023-02-11T04:45:08.180Z,66.72
2023-02-11T04:47:36.095Z,66.55
2023-02-11T04:52:42.954Z,64.30
2023-02-11T04:55:11.805Z,73.05
2023-02-11T04:57:39.157Z,76.45
2023-02-11T05:00:09.944Z,74.50
2023-02-11T05:02:37.375Z,69.55
2023-02-11T05:05:07.486Z,71.20
2023-02-11T05:07:37.617Z,67.68
2023-02-11T05:10:06.124Z,72.68
2023-02-11T05:12:36.268Z,69.65
2023-02-11T05:15:03.700Z,74.68
2023-02-11T05:17:34.088Z,67.88
2023-02-11T05:20:05.996Z,72.78
2023-02-11T05:22:40.911Z,68.43
2023-02-11T05:25:08.544Z,76.35
2023-02-11T05:27:37.264Z,77.07
2023-02-11T05:30:05.062Z,79.57
2023-02-11T05:32:34.548Z,80.68
2023-02-11T05:35:03.744Z,82.97
2023-02-11T05:37:32.349Z,76.72
2023-02-11T05:40:00.701Z,85.30
2023-02-11T05:42:28.034Z,82.28
2023-02-11T05:44:56.834Z,80.43
2023-02-11T05:47:26.105Z,75.18
2023-02-11T05:49:55.623Z,76.45
2023-02-11T05:52:23.708Z,85.60
2023-02-11T05:54:51.261Z,75.72
2023-02-11T05:57:18.765Z,75.78
2023-02-11T05:59:46.258Z,82.38
2023-02-11T06:02:22.454Z,84.57
2023-02-11T06:04:52.007Z,89.20
2023-02-11T06:07:22.230Z,92.53
2023-02-11T06:09:54.548Z,82.43
2023-02-11T06:12:21.967Z,87.38
2023-02-11T06:14:49.522Z,83.88
2023-02-11T06:17:22.638Z,85.93
2023-02-11T06:19:52.336Z,78.90
2023-02-11T06:22:19.966Z,87.63
2023-02-11T06:25:00.854Z,87.65
2023-02-11T06:27:40.380Z,88.28
2023-02-11T06:30:11.633Z,87.75
2023-02-11T06:32:46.782Z,96.82
2023-02-11T06:35:22.606Z,108.10
2023-02-11T06:37:56.197Z,90.32
2023-02-11T06:40:25.219Z,94.97
2023-02-11T06:42:52.670Z,106.55
2023-02-11T06:45:20.596Z,100.03
2023-02-11T06:47:52.082Z,103.50
2023-02-11T06:50:27.919Z,96.85
2023-02-11T06:52:58.318Z,110.65
2023-02-11T06:55:25.964Z,98.15
2023-02-11T06:57:53.431Z,93.47
2023-02-11T07:00:24.742Z,104.78
2023-02-11T07:02:57.580Z,101.95
2023-02-11T07:05:27.101Z,110.00
2023-02-11T07:07:54.478Z,110.93
2023-02-11T07:10:24.749Z,102.45
2023-02-11T07:12:58.711Z,113.55
2023-02-11T07:15:28.277Z,122.20
2023-02-11T07:17:58.182Z,110.32
2023-02-11T07:20:25.818Z,128.23
2023-02-11T07:22:56.227Z,123.38
2023-02-11T07:25:23.647Z,121.72
2023-02-11T07:27:52.240Z,125.95
2023-02-11T07:30:19.799Z,127.60
2023-02-11T07:32:49.899Z,113.13
2023-02-11T07:35:18.802Z,120.15
2023-02-11T07:37:46.179Z,113.13
2023-02-11T07:40:13.566Z,113.80
2023-02-11T07:42:43.537Z,125.43
2023-02-11T07:45:10.974Z,120.57
2023-02-11T07:47:43.035Z,111.10
2023-02-11T07:50:10.716Z,120.88
2023-02-11T07:52:41.628Z,134.13
2023-02-11T07:55:16.812Z,125.68
2023-02-11T07:57:44.145Z,117.03
2023-02-11T08:00:14.955Z,115.28
2023-02-11T08:02:44.803Z,124.15
2023-02-11T08:05:14.608Z,140.38
2023-02-11T08:07:49.288Z,143.02
2023-02-11T08:10:24.179Z,134.07
2023-02-11T08:12:57.543Z,117.18
2023-02-11T08:15:25.020Z,133.85
2023-02-11T08:17:52.613Z,140.68
2023-02-11T08:20:20.230Z,124.68
2023-02-11T08:22:52.864Z,137.85
2023-02-11T08:25:20.232Z,146.63
2023-02-11T08:27:47.604Z,128.38
2023-02-11T08:30:16.365Z,131.65
2023-02-11T08:32:43.711Z,131.32
2023-02-11T08:35:13.366Z,147.93
2023-02-11T08:37:42.714Z,135.90
2023-02-11T08:40:14.547Z,135.07
2023-02-11T08:42:45.277Z,121.72
2023-02-11T08:45:13.303Z,131.85
2023-02-11T08:47:40.854Z,122.57
2023-02-11T08:50:12.086Z,127.45
2023-02-11T08:52:39.558Z,134.68
2023-02-11T08:55:10.061Z,141.60
2023-02-11T08:57:41.249Z,137.27
2023-02-11T09:00:11.048Z,132.90
2023-02-11T09:02:40.761Z,135.15
2023-02-11T09:05:12.770Z,130.50
2023-02-11T09:07:40.145Z,104.50
2023-02-11T09:10:10.058Z,135.82
2023-02-11T09:12:38.948Z,143.77
2023-02-11T09:15:09.381Z,127.03
2023-02-11T09:17:40.746Z,143.77
2023-02-11T09:20:10.698Z,121.18
2023-02-11T09:22:38.233Z,131.40
2023-02-11T09:25:05.968Z,128.43
2023-02-11T09:27:35.427Z,131.35
2023-02-11T09:30:06.588Z,131.35
2023-02-11T09:32:42.975Z,106.22
2023-02-11T09:35:10.565Z,133.50
2023-02-11T09:37:43.413Z,131.40
2023-02-11T09:40:13.721Z,121.85
2023-02-11T09:42:46.571Z,120.82
2023-02-11T09:45:18.397Z,131.05
2023-02-11T09:47:47.959Z,122.20
2023-02-11T09:50:16.586Z,114.20
2023-02-11T09:52:46.346Z,121.85
2023-02-11T09:55:18.433Z,136.52
2023-02-11T09:57:45.943Z,125.00
2023-02-11T10:00:22.594Z,109.03
2023-02-11T10:02:58.981Z,114.10
2023-02-11T10:05:33.484Z,126.05
2023-02-11T10:08:09.721Z,115.85
2023-02-11T10:10:41.732Z,130.45
2023-02-11T10:13:19.018Z,119.30
2023-02-11T10:15:52.449Z,127.13
2023-02-11T10:18:31.966Z,124.47
2023-02-11T10:21:06.687Z,127.13
2023-02-11T10:23:38.032Z,114.45
2023-02-11T10:26:16.654Z,104.95
2023-02-11T10:28:45.968Z,106.43
2023-02-11T10:31:20.263Z,136.35
2023-02-11T10:33:50.714Z,118.70
2023-02-11T10:36:20.627Z,124.85
2023-02-11T10:38:50.999Z,115.25
2023-02-11T10:41:21.303Z,127.03
2023-02-11T10:43:51.208Z,127.30
2023-02-11T10:46:23.676Z,129.50
2023-02-11T10:48:55.233Z,128.75
2023-02-11T10:51:23.788Z,123.53
2023-02-11T10:53:53.140Z,113.03
2023-02-11T10:56:28.975Z,117.95
2023-02-11T10:59:00.682Z,122.18
2023-02-11T11:01:44.710Z,131.95
2023-02-11T11:04:35.575Z,139.43
2023-02-11T11:07:27.094Z,119.57
2023-02-11T11:10:01.608Z,132.40
2023-02-11T11:12:36.305Z,110.88
2023-02-11T11:15:16.366Z,126.68
2023-02-11T11:17:48.168Z,118.30
2023-02-11T11:20:16.944Z,129.50
2023-02-11T11:22:45.363Z,119.07
2023-02-11T11:25:29.899Z,128.23
2023-02-11T11:27:58.757Z,132.32
2023-02-11T11:30:29.773Z,131.18
2023-02-11T11:32:59.572Z,122.72
2023-02-11T11:35:28.567Z,126.63
2023-02-11T11:37:59.914Z,123.60
2023-02-11T11:40:29.577Z,117.00
2023-02-11T11:43:04.586Z,128.95
2023-02-11T11:45:31.932Z,130.00
2023-02-11T11:48:04.890Z,118.75
2023-02-11T11:50:34.969Z,125.93
2023-02-11T11:53:05.953Z,120.45
2023-02-11T11:55:42.086Z,111.20
2023-02-11T11:58:15.582Z,121.15
2023-02-11T12:00:53.177Z,122.60
2023-02-11T12:03:33.236Z,124.40
2023-02-11T12:06:12.529Z,132.27
2023-02-11T12:08:45.193Z,125.85
2023-02-11T12:11:15.219Z,121.57
2023-02-11T12:13:59.455Z,124.65
2023-02-11T12:16:48.549Z,106.57
2023-02-11T12:19:36.601Z,121.75
2023-02-11T12:22:11.411Z,109.88
2023-02-11T12:24:54.947Z,117.57
2023-02-11T12:27:29.299Z,115.28
2023-02-11T12:30:02.474Z,116.28
2023-02-11T12:32:36.368Z,116.35
2023-02-11T12:35:20.682Z,123.82
2023-02-11T12:38:08.898Z,115.45
2023-02-11T12:40:43.026Z,121.05
2023-02-11T12:43:18.197Z,113.97
2023-02-11T12:45:49.483Z,106.63
2023-02-11T12:48:26.618Z,104.78
2023-02-11T12:50:59.146Z,109.03
2023-02-11T12:53:33.678Z,105.35
2023-02-11T12:56:06.163Z,111.78
2023-02-11T12:58:44.986Z,111.32
2023-02-11T13:01:20.419Z,113.00
2023-02-11T13:03:50.836Z,106.18
2023-02-11T13:06:21.853Z,109.07
2023-02-11T13:08:58.373Z,104.57
2023-02-11T13:11:33.748Z,96.50
2023-02-11T13:14:06.945Z,97.47
2023-02-11T13:16:37.265Z,95.40
2023-02-11T13:19:12.005Z,106.10
2023-02-11T13:21:47.124Z,111.18
2023-02-11T13:24:20.336Z,105.18
2023-02-11T13:26:51.253Z,102.38
2023-02-11T13:29:26.283Z,90.45
2023-02-11T13:31:55.942Z,91.57
2023-02-11T13:34:26.928Z,100.85
2023-02-11T13:36:58.284Z,94.40
2023-02-11T13:39:26.989Z,99.97
2023-02-11T13:42:10.208Z,98.35
2023-02-11T13:44:40.566Z,100.60
2023-02-11T13:47:08.480Z,99.63
2023-02-11T13:52:05.660Z,96.45
2023-02-11T13:54:36.381Z,95.65
2023-02-11T13:57:24.005Z,94.45
2023-02-11T14:02:40.775Z,90.97
2023-02-11T14:05:44.325Z,93.15
2023-02-11T14:08:37.592Z,91.55
2023-02-11T14:11:13.350Z,89.22
2023-02-11T14:14:07.680Z,78.60
2023-02-11T14:17:02.581Z,73.05
2023-02-11T14:19:37.427Z,76.55
2023-02-11T14:22:08.698Z,76.10
2023-02-11T14:24:50.924Z,77.50
2023-02-11T14:27:25.009Z,72.97
2023-02-11T14:30:09.361Z,74.18
2023-02-11T14:32:43.503Z,73.53
2023-02-11T14:35:15.045Z,77.43
2023-02-11T14:37:50.442Z,99.60
2023-02-11T14:40:29.884Z,82.68
2023-02-11T14:43:04.088Z,80.50
2023-02-11T14:45:31.907Z,85.00
2023-02-11T14:48:04.418Z,84.82
2023-02-11T14:50:34.910Z,83.63
2023-02-11T14:53:03.151Z,95.50
2023-02-11T14:55:33.239Z,85.05
2023-02-11T14:58:18.846Z,90.38
2023-02-11T15:00:51.162Z,83.00
2023-02-11T15:03:29.052Z,84.35
2023-02-11T15:05:57.142Z,79.32
2023-02-11T15:08:24.696Z,89.05
2023-02-11T15:10:52.618Z,89.22
2023-02-11T15:13:22.677Z,89.25
2023-02-11T15:15:52.781Z,87.15
2023-02-11T15:18:22.653Z,80.20
2023-02-11T15:20:50.830Z,78.80
2023-02-11T15:23:22.572Z,83.60
2023-02-11T15:25:52.924Z,73.72
2023-02-11T15:28:28.809Z,79.05
2023-02-11T15:31:03.433Z,77.80
2023-02-11T15:33:35.892Z,85.32
2023-02-11T15:36:03.947Z,95.25
2023-02-11T15:41:02.685Z,77.25
2023-02-11T15:43:45.299Z,78.15
2023-02-11T15:46:17.453Z,89.65
2023-02-11T15:48:45.918Z,79.38
2023-02-11T15:51:20.569Z,81.13
2023-02-11T15:53:50.122Z,78.05
2023-02-11T15:56:21.209Z,79.35
2023-02-11T15:58:50.233Z,76.18
2023-02-11T16:01:20.714Z,80.63
2023-02-11T16:03:51.103Z,69.20
2023-02-11T16:06:20.221Z,71.78
2023-02-11T16:08:57.833Z,79.95
2023-02-11T16:11:26.673Z,85.88
2023-02-11T16:13:58.892Z,73.72
2023-02-11T16:16:28.228Z,87.70
2023-02-11T16:19:06.189Z,81.07
2023-02-11T16:21:36.097Z,83.38
2023-02-11T16:24:03.914Z,85.00
2023-02-11T16:26:35.770Z,77.07
2023-02-11T16:29:05.962Z,85.05
2023-02-11T16:31:34.031Z,87.65
2023-02-11T16:34:01.524Z,81.55
2023-02-11T16:36:29.183Z,83.88
2023-02-11T16:38:57.077Z,75.10
2023-02-11T16:46:21.032Z,79.55
2023-02-11T16:48:51.002Z,80.32
2023-02-11T16:51:18.541Z,77.25
2023-02-11T16:53:45.981Z,89.15
2023-02-11T16:56:20.448Z,78.60
2023-02-11T16:58:50.739Z,82.68
2023-02-11T17:01:18.478Z,78.88
2023-02-11T17:03:47.524Z,78.32
2023-02-11T17:06:14.875Z,74.10
2023-02-11T17:08:42.564Z,80.55
2023-02-11T17:11:10.115Z,88.82
2023-02-11T17:13:42.218Z,82.78
2023-02-11T17:16:16.862Z,83.72
2023-02-11T17:18:44.743Z,86.80
2023-02-11T17:21:13.905Z,80.47
2023-02-11T17:23:41.998Z,83.65
2023-02-11T17:26:10.080Z,79.13
2023-02-11T17:28:41.660Z,97.50
2023-02-11T17:31:12.235Z,86.40
2023-02-11T17:33:39.975Z,99.43
2023-02-11T17:36:08.110Z,103.20
2023-02-11T17:38:37.798Z,95.05
2023-02-11T17:41:08.778Z,90.28
2023-02-11T17:43:39.278Z,95.60
2023-02-11T17:46:07.680Z,89.22
2023-02-11T17:48:35.609Z,99.60
2023-02-11T17:53:30.694Z,96.47
2023-02-11T17:55:59.598Z,89.57
2023-02-11T17:58:27.177Z,107.97
2023-02-11T18:00:58.809Z,101.38
2023-02-11T18:03:28.507Z,91.45
2023-02-11T18:06:03.059Z,95.47
2023-02-11T18:08:31.064Z,100.18
2023-02-11T18:11:03.688Z,104.38
2023-02-11T18:13:31.329Z,99.97
2023-02-11T18:16:02.658Z,104.43
2023-02-11T18:18:33.495Z,94.45
2023-02-11T18:21:01.970Z,105.60
2023-02-11T18:23:32.001Z,118.90
2023-02-11T18:26:04.822Z,105.03
2023-02-11T18:28:35.947Z,97.25
2023-02-11T18:31:08.653Z,93.25
2023-02-11T18:33:36.709Z,89.35
2023-02-11T18:36:08.394Z,99.85
2023-02-11T18:38:36.846Z,101.65
2023-02-11T18:41:07.430Z,107.85
2023-02-11T18:43:41.300Z,107.13
2023-02-11T18:46:10.065Z,90.40
2023-02-11T18:48:37.987Z,106.65
2023-02-11T18:51:12.535Z,110.03
2023-02-11T18:53:40.366Z,101.10
2023-02-11T18:56:13.504Z,101.40
2023-02-11T18:58:42.627Z,100.65
2023-02-11T19:01:13.150Z,96.55
2023-02-11T19:03:40.886Z,112.95
2023-02-11T19:06:08.941Z,97.60
2023-02-11T19:08:36.636Z,98.53
2023-02-11T19:11:05.734Z,99.15
2023-02-11T19:13:37.258Z,107.10
2023-02-11T19:16:11.313Z,107.00
2023-02-11T19:18:39.885Z,97.30
2023-02-11T19:21:10.008Z,101.90
2023-02-11T19:23:37.519Z,99.85
2023-02-11T19:26:07.228Z,96.68
2023-02-11T19:28:40.352Z,101.32
2023-02-11T19:31:08.622Z,102.35
2023-02-11T19:33:38.677Z,97.05
2023-02-11T19:36:09.411Z,103.25
2023-02-11T19:38:40.122Z,94.25
2023-02-11T19:41:07.629Z,96.20
2023-02-11T19:43:39.283Z,101.47
2023-02-11T19:46:07.142Z,106.85
2023-02-11T19:48:34.598Z,107.40
2023-02-11T19:51:13.016Z,113.15
2023-02-11T19:53:40.711Z,98.88
2023-02-11T19:56:09.895Z,105.57
2023-02-11T19:58:41.738Z,109.53
2023-02-11T20:01:12.142Z,98.25
2023-02-11T20:03:42.713Z,102.32
2023-02-11T20:06:12.597Z,108.40
2023-02-11T20:08:40.473Z,117.18
2023-02-11T20:11:08.549Z,97.00
2023-02-11T20:13:38.858Z,112.80
2023-02-11T20:16:10.768Z,113.03
2023-02-11T20:18:45.349Z,106.68
2023-02-11T20:21:14.097Z,108.10
2023-02-11T20:23:42.397Z,113.05
2023-02-11T20:26:15.359Z,115.97
2023-02-11T20:28:49.184Z,107.30
2023-02-11T20:31:18.540Z,112.38
2023-02-11T20:33:46.678Z,113.22
2023-02-11T20:36:14.957Z,111.03
2023-02-11T20:38:44.466Z,113.28
2023-02-11T20:41:15.874Z,106.47
2023-02-11T20:43:45.753Z,116.00
2023-02-11T20:46:13.594Z,111.97
2023-02-11T20:48:42.863Z,120.97
2023-02-11T20:51:11.503Z,108.25
2023-02-11T20:53:39.970Z,116.30
2023-02-11T20:56:14.609Z,121.38
2023-02-11T20:58:44.867Z,111.15
2023-02-11T21:01:22.551Z,119.85
2023-02-11T21:06:21.124Z,124.93
2023-02-11T21:08:48.653Z,123.30
2023-02-11T21:11:25.569Z,120.22
2023-02-11T21:13:55.154Z,121.80
2023-02-11T21:16:25.555Z,139.85
2023-02-11T21:18:53.263Z,108.65
2023-02-11T21:21:22.129Z,113.07
2023-02-11T21:23:49.731Z,121.13
2023-02-11T21:26:19.670Z,123.88
2023-02-11T21:28:48.767Z,119.05
2023-02-11T21:31:23.842Z,126.43
2023-02-11T21:33:52.915Z,121.40
2023-02-11T21:36:24.583Z,121.82
2023-02-11T21:38:52.408Z,120.40
2023-02-11T21:41:22.259Z,123.25
2023-02-11T21:43:49.625Z,133.65
2023-02-11T21:46:17.622Z,136.48
2023-02-11T21:48:50.946Z,121.32
2023-02-11T21:51:19.606Z,124.38
2023-02-11T21:53:51.131Z,129.15
2023-02-11T21:56:20.553Z,125.85
2023-02-11T21:58:48.133Z,121.00
2023-02-11T22:01:22.865Z,126.25
2023-02-11T22:03:50.571Z,120.57
2023-02-11T22:06:22.621Z,122.30
2023-02-11T22:08:58.260Z,130.82
2023-02-11T22:11:28.191Z,116.25
2023-02-11T22:13:57.789Z,124.28
2023-02-11T22:16:33.043Z,107.07
2023-02-11T22:19:07.320Z,118.30
2023-02-11T22:21:34.742Z,113.38
2023-02-11T22:24:06.255Z,112.50
2023-02-11T22:26:33.940Z,107.75
2023-02-11T22:29:02.381Z,113.72
2023-02-11T22:31:35.149Z,123.95
2023-02-11T22:34:08.252Z,117.15
2023-02-11T22:36:36.977Z,108.15
2023-02-11T22:39:07.246Z,106.00
2023-02-11T22:41:36.932Z,113.78
2023-02-11T22:44:04.319Z,116.95
2023-02-11T22:46:34.652Z,111.10
2023-02-11T22:49:04.928Z,102.55
2023-02-11T22:51:32.837Z,122.53
2023-02-11T22:56:29.354Z,103.25
2023-02-11T22:58:57.887Z,107.85
2023-02-11T23:01:25.383Z,117.53
2023-02-11T23:03:55.485Z,106.97
2023-02-11T23:06:22.862Z,104.95
2023-02-11T23:08:50.205Z,110.03
2023-02-11T23:11:18.316Z,102.90
2023-02-11T23:13:47.714Z,105.90
2023-02-11T23:16:16.315Z,108.43
2023-02-11T23:18:44.523Z,100.40
2023-02-11T23:21:13.095Z,95.30
2023-02-11T23:23:42.697Z,108.45
2023-02-11T23:26:11.327Z,97.18
2023-02-11T23:28:38.824Z,105.10
2023-02-11T23:31:15.729Z,103.70
2023-02-11T23:33:43.192Z,95.87
2023-02-11T23:36:25.043Z,104.90
2023-02-11T23:38:53.370Z,89.40
2023-02-11T23:41:21.121Z,102.07
2023-02-11T23:43:50.447Z,101.00
2023-02-11T23:46:21.735Z,95.18
2023-02-11T23:48:49.269Z,106.65
2023-02-11T23:51:16.805Z,94.40
2023-02-11T23:53:48.963Z,96.40
2023-02-11T23:56:17.362Z,101.35
2023-02-11T23:58:46.235Z,88.15
